createdAt,value
2022-10-06T00:01:10.925Z,101906.45
2022-10-06T00:03:26.905Z,101907.61
2022-10-06T00:05:39.957Z,101911.02
2022-10-06T00:07:53.253Z,101909.11
2022-10-06T00:10:06.992Z,101908.29
2022-10-06T00:12:20.066Z,101907.80
2022-10-06T00:14:33.297Z,101908.46
2022-10-06T00:16:46.420Z,101907.24
2022-10-06T00:18:59.936Z,101901.92
2022-10-06T00:21:13.458Z,101903.58
2022-10-06T00:23:26.670Z,101906.52
2022-10-06T00:25:40.134Z,101904.09
2022-10-06T00:27:54.901Z,101904.48
2022-10-06T00:30:08.955Z,101909.11
2022-10-06T00:32:22.258Z,101906.55
2022-10-06T00:34:35.466Z,101909.44
2022-10-06T00:36:48.686Z,101908.89
2022-10-06T00:39:01.875Z,101909.05
2022-10-06T00:41:17.924Z,101906.44
2022-10-06T00:43:51.476Z,101905.03
2022-10-06T00:46:04.611Z,101903.96
2022-10-06T00:48:24.197Z,101904.89
2022-10-06T00:50:39.151Z,101906.61
2022-10-06T00:52:52.715Z,101903.73
2022-10-06T00:55:06.146Z,101901.64
2022-10-06T00:57:19.287Z,101908.63
2022-10-06T00:59:32.270Z,101902.92
2022-10-06T01:01:48.202Z,101902.27
2022-10-06T01:04:08.026Z,101899.84
2022-10-06T01:06:21.647Z,101897.41
2022-10-06T01:08:35.927Z,101894.17
2022-10-06T01:10:50.802Z,101892.45
2022-10-06T01:13:04.598Z,101893.69
2022-10-06T01:15:18.606Z,101893.10
2022-10-06T01:17:37.743Z,101892.16
2022-10-06T01:20:09.645Z,101890.55
2022-10-06T01:22:28.758Z,101884.45
2022-10-06T01:24:42.285Z,101885.67
2022-10-06T01:26:57.306Z,101887.55
2022-10-06T01:29:13.651Z,101887.47
2022-10-06T01:31:28.171Z,101886.95
2022-10-06T01:33:41.791Z,101887.42
2022-10-06T01:35:56.091Z,101892.97
2022-10-06T01:38:09.699Z,101894.09
2022-10-06T01:40:22.986Z,101891.00
2022-10-06T01:42:37.112Z,101892.38
2022-10-06T01:44:50.466Z,101888.73
2022-10-06T01:47:03.792Z,101887.10
2022-10-06T01:49:17.113Z,101884.81
2022-10-06T01:51:30.566Z,101886.91
2022-10-06T01:53:44.287Z,101890.64
2022-10-06T01:56:00.772Z,101890.96
2022-10-06T01:58:16.106Z,101891.58
2022-10-06T02:00:29.258Z,101888.88
2022-10-06T02:02:43.547Z,101891.44
2022-10-06T02:04:58.800Z,101890.36
2022-10-06T02:07:12.459Z,101895.34
2022-10-06T02:09:30.918Z,101897.20
2022-10-06T02:11:45.335Z,101893.13
2022-10-06T02:13:58.571Z,101897.08
2022-10-06T02:16:15.067Z,101895.30
2022-10-06T02:18:29.631Z,101901.52
2022-10-06T02:20:43.854Z,101895.25
2022-10-06T02:22:59.249Z,101896.66
2022-10-06T02:25:14.969Z,101900.88
2022-10-06T02:27:28.896Z,101904.42
2022-10-06T02:29:42.327Z,101903.54
2022-10-06T02:31:56.087Z,101900.86
2022-10-06T02:34:10.275Z,101896.81
2022-10-06T02:36:23.819Z,101901.71
2022-10-06T02:38:36.718Z,101903.80
2022-10-06T02:40:52.563Z,101903.58
2022-10-06T02:43:05.795Z,101905.21
2022-10-06T02:45:19.255Z,101905.27
2022-10-06T02:47:33.858Z,101913.02
2022-10-06T02:49:47.129Z,101912.24
2022-10-06T02:52:02.042Z,101911.79
2022-10-06T02:54:15.386Z,101910.78
2022-10-06T02:56:29.783Z,101912.49
2022-10-06T02:58:44.221Z,101910.79
2022-10-06T03:01:04.889Z,101915.41
2022-10-06T03:03:24.297Z,101916.25
2022-10-06T03:05:37.871Z,101914.89
2022-10-06T03:07:52.179Z,101912.77
2022-10-06T03:10:06.068Z,101914.77
2022-10-06T03:12:19.937Z,101914.56
2022-10-06T03:14:33.203Z,101914.66
2022-10-06T03:16:47.905Z,101917.95
2022-10-06T03:19:15.035Z,101920.50
2022-10-06T03:21:32.755Z,101925.51
2022-10-06T03:23:47.149Z,101930.63
2022-10-06T03:26:06.618Z,101931.02
2022-10-06T03:28:20.244Z,101925.55
2022-10-06T03:30:34.399Z,101925.10
2022-10-06T03:32:47.828Z,101922.73
2022-10-06T03:35:01.534Z,101929.15
2022-10-06T03:37:15.033Z,101934.02
2022-10-06T03:39:28.606Z,101932.35
2022-10-06T03:41:43.371Z,101929.09
2022-10-06T03:44:00.249Z,101929.34
2022-10-06T03:46:14.553Z,101922.11
2022-10-06T03:48:28.139Z,101924.59
2022-10-06T03:50:41.677Z,101924.65
2022-10-06T03:52:55.024Z,101928.99
2022-10-06T03:55:08.671Z,101925.56
2022-10-06T03:57:21.915Z,101924.55
2022-10-06T03:59:36.178Z,101922.98
2022-10-06T04:01:51.779Z,101923.86
2022-10-06T04:04:14.624Z,101927.60
2022-10-06T04:06:30.859Z,101925.17
2022-10-06T04:08:44.718Z,101922.90
2022-10-06T04:10:58.999Z,101920.30
2022-10-06T04:13:15.208Z,101923.02
2022-10-06T04:15:28.660Z,101926.15
2022-10-06T04:17:42.171Z,101927.85
2022-10-06T04:19:56.743Z,101930.58
2022-10-06T04:22:10.226Z,101932.30
2022-10-06T04:24:23.802Z,101929.69
2022-10-06T04:26:41.067Z,101935.61
2022-10-06T04:28:54.315Z,101940.59
2022-10-06T04:31:08.960Z,101938.48
2022-10-06T04:33:23.574Z,101942.40
2022-10-06T04:35:37.109Z,101939.88
2022-10-06T04:37:51.092Z,101939.70
2022-10-06T04:40:04.980Z,101940.77
2022-10-06T04:42:19.130Z,101941.14
2022-10-06T04:44:32.222Z,101943.86
2022-10-06T04:46:47.544Z,101952.92
2022-10-06T04:49:01.994Z,101950.64
2022-10-06T04:51:19.581Z,101952.55
2022-10-06T04:53:33.740Z,101947.80
2022-10-06T04:55:46.851Z,101950.98
2022-10-06T04:58:01.068Z,101948.30
2022-10-06T05:00:26.825Z,101946.80
2022-10-06T05:02:42.319Z,101949.04
2022-10-06T05:04:55.742Z,101945.95
2022-10-06T05:07:09.275Z,101943.54
2022-10-06T05:09:22.797Z,101946.96
2022-10-06T05:11:40.502Z,101948.10
2022-10-06T05:13:58.505Z,101946.76
2022-10-06T05:16:15.809Z,101944.16
2022-10-06T05:18:31.972Z,101943.23
2022-10-06T05:20:45.199Z,101942.91
2022-10-06T05:22:58.899Z,101943.09
2022-10-06T05:25:12.917Z,101945.75
2022-10-06T05:27:26.124Z,101943.91
2022-10-06T05:29:40.515Z,101940.63
2022-10-06T05:31:54.548Z,101939.58
2022-10-06T05:34:08.092Z,101939.26
2022-10-06T05:36:22.536Z,101939.44
2022-10-06T05:38:37.378Z,101935.58
2022-10-06T05:40:50.591Z,101933.96
2022-10-06T05:43:03.727Z,101927.88
2022-10-06T05:45:17.384Z,101924.75
2022-10-06T05:47:30.613Z,101922.98
2022-10-06T05:49:43.971Z,101915.58
2022-10-06T05:51:56.992Z,101912.27
2022-10-06T05:54:16.017Z,101909.02
2022-10-06T05:56:31.545Z,101906.36
2022-10-06T05:58:46.006Z,101910.15
2022-10-06T06:00:58.954Z,101906.51
2022-10-06T06:03:14.398Z,101908.48
2022-10-06T06:05:27.549Z,101910.31
2022-10-06T06:07:40.733Z,101909.18
2022-10-06T06:09:54.505Z,101906.84
2022-10-06T06:12:07.909Z,101902.61
2022-10-06T06:14:42.796Z,101901.23
2022-10-06T06:16:59.112Z,101899.33
2022-10-06T06:19:13.918Z,101904.02
2022-10-06T06:21:29.996Z,101904.66
2022-10-06T06:23:45.336Z,101904.63
2022-10-06T06:26:08.246Z,101905.46
2022-10-06T06:28:25.297Z,101908.48
2022-10-06T06:30:38.498Z,101910.09
2022-10-06T06:32:51.868Z,101909.14
2022-10-06T06:35:04.943Z,101907.59
2022-10-06T06:37:18.810Z,101902.85
2022-10-06T06:39:33.058Z,101904.06
2022-10-06T06:41:48.245Z,101902.67
2022-10-06T06:44:26.967Z,101905.73
2022-10-06T06:46:50.382Z,101903.56
2022-10-06T06:49:07.221Z,101899.75
2022-10-06T06:51:25.492Z,101903.02
2022-10-06T06:53:39.025Z,101906.01
2022-10-06T06:55:56.934Z,101905.80
2022-10-06T06:58:09.956Z,101904.61
2022-10-06T07:00:24.658Z,101903.60
2022-10-06T07:02:37.854Z,101902.08
2022-10-06T07:04:50.944Z,101907.25
2022-10-06T07:07:05.504Z,101908.02
2022-10-06T07:09:22.022Z,101909.38
2022-10-06T07:11:37.651Z,101909.43
2022-10-06T07:13:58.882Z,101908.31
2022-10-06T07:16:29.722Z,101907.94
2022-10-06T07:18:59.054Z,101903.30
2022-10-06T07:21:32.654Z,101897.69
2022-10-06T07:24:04.861Z,101899.71
2022-10-06T07:26:18.049Z,101900.86
2022-10-06T07:28:32.146Z,101900.58
2022-10-06T07:30:46.333Z,101906.11
2022-10-06T07:33:01.871Z,101908.23
2022-10-06T07:35:16.665Z,101908.02
2022-10-06T07:37:30.605Z,101904.98
2022-10-06T07:39:46.150Z,101904.02
2022-10-06T07:41:59.193Z,101906.64
2022-10-06T07:44:12.297Z,101903.42
2022-10-06T07:46:27.402Z,101907.77
2022-10-06T07:48:48.409Z,101905.27
2022-10-06T07:51:01.546Z,101904.31
2022-10-06T07:53:22.454Z,101904.23
2022-10-06T07:55:40.996Z,101905.40
2022-10-06T07:58:02.217Z,101902.78
2022-10-06T08:00:18.422Z,101904.83
2022-10-06T08:02:34.768Z,101906.08
2022-10-06T08:04:49.054Z,101911.20
2022-10-06T08:07:01.945Z,101910.99
2022-10-06T08:09:14.933Z,101913.07
2022-10-06T08:11:28.245Z,101910.70
2022-10-06T08:13:43.392Z,101914.23
2022-10-06T08:15:57.608Z,101911.20
2022-10-06T08:18:27.296Z,101909.14
2022-10-06T08:20:44.470Z,101907.50
2022-10-06T08:22:58.054Z,101907.85
2022-10-06T08:25:13.845Z,101905.39
2022-10-06T08:27:27.237Z,101908.16
2022-10-06T08:29:40.383Z,101905.77
2022-10-06T08:31:53.581Z,101907.30
2022-10-06T08:34:11.966Z,101903.13
2022-10-06T08:36:31.453Z,101903.88
2022-10-06T08:38:46.746Z,101898.80
2022-10-06T08:40:59.938Z,101904.02
2022-10-06T08:43:22.809Z,101906.88
2022-10-06T08:45:41.404Z,101911.07
2022-10-06T08:48:02.150Z,101912.84
2022-10-06T08:50:18.032Z,101919.73
2022-10-06T08:52:49.570Z,101918.37
2022-10-06T08:55:11.222Z,101919.61
2022-10-06T08:57:30.161Z,101921.10
2022-10-06T08:59:45.533Z,101927.67
2022-10-06T09:01:58.778Z,101926.35
2022-10-06T09:04:14.136Z,101929.41
2022-10-06T09:06:39.255Z,101927.91
2022-10-06T09:08:57.408Z,101930.95
2022-10-06T09:11:27.684Z,101931.76
2022-10-06T09:13:43.376Z,101932.04
2022-10-06T09:16:02.296Z,101931.05
2022-10-06T09:18:19.672Z,101931.59
2022-10-06T09:20:37.812Z,101933.64
2022-10-06T09:22:52.093Z,101928.74
2022-10-06T09:25:15.163Z,101928.46
2022-10-06T09:27:31.479Z,101927.79
2022-10-06T09:29:44.827Z,101927.66
2022-10-06T09:31:57.954Z,101928.03
2022-10-06T09:34:23.679Z,101931.20
2022-10-06T09:37:01.052Z,101930.14
2022-10-06T09:39:28.102Z,101929.02
2022-10-06T09:41:48.545Z,101930.13
2022-10-06T09:44:04.338Z,101922.37
2022-10-06T09:46:31.225Z,101923.63
2022-10-06T09:48:44.240Z,101921.77
2022-10-06T09:51:16.327Z,101924.95
2022-10-06T09:53:29.390Z,101918.27
2022-10-06T09:55:55.785Z,101918.63
2022-10-06T09:58:19.335Z,101914.69
2022-10-06T10:00:37.455Z,101913.33
2022-10-06T10:02:50.656Z,101917.83
2022-10-06T10:05:04.286Z,101918.89
2022-10-06T10:07:29.133Z,101917.31
2022-10-06T10:09:43.018Z,101911.25
2022-10-06T10:12:32.377Z,101910.66
2022-10-06T10:14:45.557Z,101911.19
2022-10-06T10:16:58.632Z,101906.91
2022-10-06T10:19:25.310Z,101902.81
2022-10-06T10:21:39.597Z,101902.52
2022-10-06T10:23:59.925Z,101905.92
2022-10-06T10:26:21.218Z,101901.86
2022-10-06T10:28:57.259Z,101903.61
2022-10-06T10:31:19.513Z,101897.80
2022-10-06T10:33:46.080Z,101895.45
2022-10-06T10:36:12.017Z,101898.21
2022-10-06T10:38:28.144Z,101897.55
2022-10-06T10:40:45.977Z,101902.35
2022-10-06T10:43:06.603Z,101899.52
2022-10-06T10:45:27.666Z,101896.15
2022-10-06T10:47:42.910Z,101895.93
2022-10-06T10:50:04.736Z,101895.16
2022-10-06T10:52:22.527Z,101888.73
2022-10-06T10:54:43.297Z,101885.59
2022-10-06T10:56:57.976Z,101884.02
2022-10-06T10:59:24.568Z,101882.98
2022-10-06T11:01:44.503Z,101885.81
2022-10-06T11:04:00.555Z,101886.41
2022-10-06T11:06:34.956Z,101884.45
2022-10-06T11:08:54.727Z,101881.83
2022-10-06T11:11:16.067Z,101888.89
2022-10-06T11:13:36.987Z,101887.47
2022-10-06T11:16:01.384Z,101886.95
2022-10-06T11:18:23.485Z,101883.04
2022-10-06T11:20:54.530Z,101887.30
2022-10-06T11:23:19.827Z,101887.29
2022-10-06T11:25:39.292Z,101885.27
2022-10-06T11:28:02.479Z,101879.41
2022-10-06T11:30:21.217Z,101875.97
2022-10-06T11:32:43.394Z,101880.47
2022-10-06T11:34:57.134Z,101885.65
2022-10-06T11:37:21.806Z,101882.95
2022-10-06T11:39:51.628Z,101877.31
2022-10-06T11:42:10.641Z,101872.12
2022-10-06T11:44:30.317Z,101870.63
2022-10-06T11:46:48.718Z,101869.95
2022-10-06T11:49:37.031Z,101869.37
2022-10-06T11:51:50.463Z,101867.88
2022-10-06T11:54:03.605Z,101872.00
2022-10-06T11:56:44.568Z,101869.11
2022-10-06T11:59:27.488Z,101866.30
2022-10-06T12:02:00.421Z,101866.22
2022-10-06T12:04:18.507Z,101864.52
2022-10-06T12:06:59.783Z,101866.29
2022-10-06T12:09:43.820Z,101868.30
2022-10-06T12:11:59.299Z,101868.00
2022-10-06T12:17:12.982Z,101863.19
2022-10-06T12:19:34.621Z,101864.91
2022-10-06T12:21:58.462Z,101860.85
2022-10-06T12:24:35.766Z,101858.70
2022-10-06T12:26:57.981Z,101853.52
2022-10-06T12:29:34.882Z,101860.02
2022-10-06T12:31:58.856Z,101858.30
2022-10-06T12:34:46.292Z,101859.80
2022-10-06T12:37:34.462Z,101864.86
2022-10-06T12:39:47.497Z,101865.45
2022-10-06T12:42:10.680Z,101868.63
2022-10-06T12:44:30.235Z,101868.48
2022-10-06T12:46:54.166Z,101866.05
2022-10-06T12:49:38.181Z,101867.45
2022-10-06T12:51:56.038Z,101866.75
2022-10-06T12:55:46.304Z,101869.95
2022-10-06T12:57:59.429Z,101868.94
2022-10-06T13:00:34.465Z,101866.09
2022-10-06T13:02:50.056Z,101866.99
2022-10-06T13:05:06.757Z,101865.43
2022-10-06T13:07:23.508Z,101868.55
2022-10-06T13:09:36.835Z,101864.27
2022-10-06T13:11:50.569Z,101858.55
2022-10-06T13:14:11.308Z,101858.90
2022-10-06T13:16:27.672Z,101859.62
2022-10-06T13:18:40.881Z,101861.97
2022-10-06T13:20:56.282Z,101864.84
2022-10-06T13:23:24.612Z,101863.18
2022-10-06T13:25:45.484Z,101857.79
2022-10-06T13:27:58.762Z,101860.58
2022-10-06T13:30:24.825Z,101863.10
2022-10-06T13:32:38.220Z,101861.95
2022-10-06T13:34:52.201Z,101861.70
2022-10-06T13:37:06.325Z,101862.26
2022-10-06T13:39:21.467Z,101863.15
2022-10-06T13:41:38.316Z,101862.46
2022-10-06T13:43:56.221Z,101860.02
2022-10-06T13:46:14.723Z,101866.29
2022-10-06T13:48:28.638Z,101859.23
2022-10-06T13:50:48.110Z,101865.02
2022-10-06T13:53:01.330Z,101863.52
2022-10-06T13:55:21.709Z,101868.16
2022-10-06T13:57:43.598Z,101867.84
2022-10-06T14:00:09.098Z,101876.35
2022-10-06T14:02:36.418Z,101874.42
2022-10-06T14:05:09.667Z,101873.62
2022-10-06T14:07:23.386Z,101871.52
2022-10-06T14:09:37.963Z,101870.15
2022-10-06T14:11:51.335Z,101872.98
2022-10-06T14:14:06.637Z,101874.63
2022-10-06T14:16:26.525Z,101873.23
2022-10-06T14:18:45.025Z,101869.39
2022-10-06T14:20:59.600Z,101872.13
2022-10-06T14:23:40.724Z,101872.75
2022-10-06T14:25:55.232Z,101871.23
2022-10-06T14:28:08.403Z,101875.00
2022-10-06T14:30:21.722Z,101876.25
2022-10-06T14:32:34.914Z,101875.31
2022-10-06T14:34:48.375Z,101876.94
2022-10-06T14:37:01.250Z,101875.82
2022-10-06T14:39:16.042Z,101875.64
2022-10-06T14:41:30.861Z,101880.36
2022-10-06T14:43:44.608Z,101882.70
2022-10-06T14:46:01.394Z,101881.90
2022-10-06T14:48:20.371Z,101880.21
2022-10-06T14:50:33.640Z,101883.33
2022-10-06T14:52:46.753Z,101882.03
2022-10-06T14:55:00.803Z,101883.27
2022-10-06T14:57:14.728Z,101879.48
2022-10-06T14:59:27.875Z,101881.77
2022-10-06T15:01:43.393Z,101881.84
2022-10-06T15:04:00.077Z,101882.56
2022-10-06T15:06:31.128Z,101882.86
2022-10-06T15:08:44.246Z,101887.16
2022-10-06T15:10:59.739Z,101886.14
2022-10-06T15:13:14.051Z,101887.21
2022-10-06T15:15:27.488Z,101886.94
2022-10-06T15:17:40.607Z,101890.75
2022-10-06T15:19:53.793Z,101893.63
2022-10-06T15:22:07.669Z,101892.48
2022-10-06T15:24:22.190Z,101891.17
2022-10-06T15:26:51.770Z,101892.22
2022-10-06T15:29:05.059Z,101894.28
2022-10-06T15:31:25.207Z,101895.84
2022-10-06T15:33:38.290Z,101896.47
2022-10-06T15:36:05.409Z,101897.67
2022-10-06T15:38:18.565Z,101900.01
2022-10-06T15:40:32.017Z,101898.70
2022-10-06T15:42:45.128Z,101902.39
2022-10-06T15:44:58.301Z,101902.59
2022-10-06T15:47:12.534Z,101899.95
2022-10-06T15:49:26.691Z,101896.90
2022-10-06T15:51:46.179Z,101899.02
2022-10-06T15:53:59.831Z,101900.73
2022-10-06T15:56:13.807Z,101904.21
2022-10-06T15:58:26.900Z,101906.70
2022-10-06T16:00:40.131Z,101905.24
2022-10-06T16:02:53.423Z,101906.06
2022-10-06T16:05:25.318Z,101904.27
2022-10-06T16:07:38.602Z,101909.36
2022-10-06T16:09:53.055Z,101913.23
2022-10-06T16:12:07.446Z,101910.46
2022-10-06T16:14:20.811Z,101907.88
2022-10-06T16:16:33.987Z,101907.87
2022-10-06T16:18:47.144Z,101907.62
2022-10-06T16:21:01.190Z,101907.52
2022-10-06T16:23:14.690Z,101907.59
2022-10-06T16:25:27.791Z,101907.83
2022-10-06T16:27:41.398Z,101908.39
2022-10-06T16:29:54.565Z,101905.03
2022-10-06T16:32:07.805Z,101911.28
2022-10-06T16:34:21.679Z,101914.27
2022-10-06T16:36:34.758Z,101912.41
2022-10-06T16:38:47.988Z,101910.35
2022-10-06T16:41:05.536Z,101907.61
2022-10-06T16:43:18.826Z,101904.86
2022-10-06T16:45:31.988Z,101900.65
2022-10-06T16:47:45.196Z,101902.69
2022-10-06T16:49:58.810Z,101900.95
2022-10-06T16:52:12.038Z,101899.73
2022-10-06T16:54:25.309Z,101901.58
2022-10-06T16:56:39.712Z,101899.86
2022-10-06T16:58:55.328Z,101902.39
2022-10-06T17:01:08.727Z,101897.20
2022-10-06T17:03:21.945Z,101897.21
2022-10-06T17:05:35.901Z,101896.84
2022-10-06T17:07:49.014Z,101895.76
2022-10-06T17:10:19.472Z,101897.45
2022-10-06T17:12:34.790Z,101898.20
2022-10-06T17:14:48.093Z,101897.81
2022-10-06T17:17:02.439Z,101901.13
2022-10-06T17:19:17.774Z,101902.73
2022-10-06T17:21:49.556Z,101908.60
2022-10-06T17:24:06.191Z,101911.58
2022-10-06T17:26:21.738Z,101911.73
2022-10-06T17:28:35.267Z,101908.98
2022-10-06T17:31:00.394Z,101911.61
2022-10-06T17:33:13.623Z,101908.59
2022-10-06T17:35:26.852Z,101908.04
2022-10-06T17:37:41.746Z,101906.63
2022-10-06T17:39:54.934Z,101903.05
2022-10-06T17:42:08.247Z,101901.73
2022-10-06T17:44:24.043Z,101896.98
2022-10-06T17:46:41.616Z,101896.62
2022-10-06T17:48:57.409Z,101895.07
2022-10-06T17:51:15.324Z,101897.06
2022-10-06T17:53:29.364Z,101892.94
2022-10-06T17:55:44.355Z,101893.10
2022-10-06T17:57:59.692Z,101897.51
2022-10-06T18:00:19.033Z,101899.76
2022-10-06T18:02:32.384Z,101897.44
2022-10-06T18:04:45.691Z,101897.27
2022-10-06T18:06:59.850Z,101902.00
2022-10-06T18:09:13.097Z,101904.67
2022-10-06T18:11:39.832Z,101905.33
2022-10-06T18:13:53.176Z,101906.80
2022-10-06T18:16:06.454Z,101907.27
2022-10-06T18:18:26.505Z,101903.95
2022-10-06T18:20:42.512Z,101903.73
2022-10-06T18:22:56.094Z,101898.66
2022-10-06T18:25:11.045Z,101897.72
2022-10-06T18:27:25.447Z,101892.30
2022-10-06T18:29:41.052Z,101892.30
2022-10-06T18:31:55.633Z,101889.82
2022-10-06T18:36:10.447Z,101883.81
2022-10-06T18:36:45.420Z,101878.74
2022-10-06T18:38:59.023Z,101878.19
2022-10-06T18:41:15.398Z,101880.65
2022-10-06T18:43:28.828Z,101879.84
2022-10-06T18:45:58.377Z,101877.80
2022-10-06T18:48:28.121Z,101877.73
2022-10-06T18:50:41.456Z,101873.30
2022-10-06T18:52:54.628Z,101873.97
2022-10-06T18:55:08.004Z,101872.86
2022-10-06T18:57:26.596Z,101875.18
2022-10-06T18:59:40.978Z,101875.98
2022-10-06T19:01:55.104Z,101874.83
2022-10-06T19:04:11.255Z,101872.79
2022-10-06T19:06:24.842Z,101870.69
2022-10-06T19:08:38.128Z,101866.96
2022-10-06T19:11:04.485Z,101867.18
2022-10-06T19:13:17.904Z,101863.64
2022-10-06T19:15:31.068Z,101865.22
2022-10-06T19:17:47.091Z,101862.98
2022-10-06T19:20:00.410Z,101863.05
2022-10-06T19:22:13.751Z,101862.36
2022-10-06T19:24:27.699Z,101864.97
2022-10-06T19:26:45.683Z,101865.10
2022-10-06T19:29:01.924Z,101863.48
2022-10-06T19:31:21.328Z,101860.11
2022-10-06T19:33:35.166Z,101863.07
2022-10-06T19:35:57.336Z,101860.76
2022-10-06T19:38:10.676Z,101869.61
2022-10-06T19:40:24.148Z,101871.15
2022-10-06T19:42:52.872Z,101870.39
2022-10-06T19:45:06.331Z,101869.79
2022-10-06T19:47:21.480Z,101869.34
2022-10-06T19:49:34.855Z,101869.30
2022-10-06T19:51:48.550Z,101874.55
2022-10-06T19:54:01.757Z,101866.55
2022-10-06T19:56:15.246Z,101869.20
2022-10-06T19:58:28.670Z,101869.02
2022-10-06T20:00:42.622Z,101870.29
2022-10-06T20:02:56.061Z,101871.09
2022-10-06T20:05:09.709Z,101866.33
2022-10-06T20:07:26.718Z,101862.30
2022-10-06T20:09:40.284Z,101858.80
2022-10-06T20:11:54.819Z,101853.14
2022-10-06T20:14:09.491Z,101852.44
2022-10-06T20:16:23.815Z,101843.60
2022-10-06T20:18:41.638Z,101841.94
2022-10-06T20:21:04.315Z,101839.54
2022-10-06T20:23:17.669Z,101837.58
2022-10-06T20:25:32.300Z,101836.20
2022-10-06T20:27:46.322Z,101831.95
2022-10-06T20:30:00.402Z,101828.91
2022-10-06T20:32:13.585Z,101830.23
2022-10-06T20:34:27.886Z,101828.21
2022-10-06T20:36:43.127Z,101827.52
2022-10-06T20:39:12.957Z,101825.02
2022-10-06T20:41:26.316Z,101825.38
2022-10-06T20:43:39.509Z,101824.67
2022-10-06T20:45:56.842Z,101824.77
2022-10-06T20:48:10.125Z,101825.94
2022-10-06T20:50:23.316Z,101824.15
2022-10-06T20:52:36.470Z,101822.10
2022-10-06T20:54:49.770Z,101826.35
2022-10-06T20:57:03.209Z,101823.73
2022-10-06T20:59:18.047Z,101825.06
2022-10-06T21:01:31.437Z,101824.52
2022-10-06T21:03:50.487Z,101821.81
2022-10-06T21:06:03.776Z,101820.25
2022-10-06T21:08:17.251Z,101823.82
2022-10-06T21:10:30.591Z,101824.91
2022-10-06T21:12:44.332Z,101820.50
2022-10-06T21:14:58.408Z,101820.23
2022-10-06T21:17:11.702Z,101817.66
2022-10-06T21:19:28.052Z,101822.36
2022-10-06T21:21:41.871Z,101820.58
2022-10-06T21:23:55.189Z,101818.50
2022-10-06T21:26:10.380Z,101815.41
2022-10-06T21:28:25.588Z,101815.18
2022-10-06T21:30:39.928Z,101812.71
2022-10-06T21:32:56.275Z,101814.50
2022-10-06T21:35:10.682Z,101812.73
2022-10-06T21:37:24.011Z,101814.05
2022-10-06T21:39:37.134Z,101812.53
2022-10-06T21:41:50.240Z,101809.99
2022-10-06T21:44:04.546Z,101811.61
2022-10-06T21:46:28.438Z,101813.27
2022-10-06T21:48:42.025Z,101814.59
2022-10-06T21:51:02.261Z,101812.81
2022-10-06T21:53:15.503Z,101811.39
2022-10-06T21:55:28.793Z,101814.67
2022-10-06T21:57:42.206Z,101815.30
2022-10-06T21:59:55.702Z,101813.15
2022-10-06T22:02:09.193Z,101813.02
2022-10-06T22:04:22.639Z,101809.92
2022-10-06T22:06:37.106Z,101812.77
2022-10-06T22:08:50.528Z,101807.96
2022-10-06T22:11:09.282Z,101805.61
2022-10-06T22:13:22.548Z,101805.42
2022-10-06T22:15:38.932Z,101802.63
2022-10-06T22:17:52.293Z,101800.33
2022-10-06T22:20:05.463Z,101802.02
2022-10-06T22:22:18.581Z,101796.81
2022-10-06T22:24:31.867Z,101796.16
2022-10-06T22:26:46.253Z,101794.08
2022-10-06T22:29:01.003Z,101789.50
2022-10-06T22:31:15.472Z,101788.63
2022-10-06T22:33:28.578Z,101787.93
2022-10-06T22:35:41.758Z,101784.70
2022-10-06T22:37:54.919Z,101785.32
2022-10-06T22:40:08.299Z,101780.27
2022-10-06T22:42:21.378Z,101780.85
2022-10-06T22:44:34.432Z,101778.46
2022-10-06T22:46:47.838Z,101777.36
2022-10-06T22:49:01.267Z,101772.60
2022-10-06T22:51:15.094Z,101768.69
2022-10-06T22:53:31.269Z,101770.15
2022-10-06T22:55:44.406Z,101770.08
2022-10-06T22:57:57.463Z,101767.86
2022-10-06T23:00:11.538Z,101765.79
2022-10-06T23:02:24.744Z,101766.95
2022-10-06T23:04:37.831Z,101762.21
2022-10-06T23:06:50.908Z,101765.68
2022-10-06T23:09:06.140Z,101764.52
2022-10-06T23:11:20.630Z,101760.77
2022-10-06T23:13:36.184Z,101766.88
2022-10-06T23:15:49.534Z,101759.96
2022-10-06T23:18:02.843Z,101761.80
2022-10-06T23:20:16.471Z,101763.45
2022-10-06T23:22:30.824Z,101767.53
2022-10-06T23:24:44.068Z,101763.50
2022-10-06T23:26:59.236Z,101766.15
2022-10-06T23:29:14.281Z,101763.49
2022-10-06T23:31:27.685Z,101763.50
2022-10-06T23:33:41.845Z,101768.06
2022-10-06T23:36:04.674Z,101765.52
2022-10-06T23:38:17.990Z,101766.07
2022-10-06T23:40:31.308Z,101766.83
2022-10-06T23:42:44.633Z,101764.08
2022-10-06T23:44:58.142Z,101764.56
2022-10-06T23:47:11.640Z,101765.43
2022-10-06T23:49:25.047Z,101763.02
2022-10-06T23:51:38.372Z,101761.35
2022-10-06T23:53:51.615Z,101763.58
2022-10-06T23:56:05.421Z,101765.61
2022-10-06T23:58:18.658Z,101770.27
